Airfield :
LOGIN :

Register | Disclaimer

   EN    FR    IT 

 










Legend :    VFR   Marginal VFR   IFR   Intensive IFR   Very Intensive IFR
Visi :
Ceiling :
>= 8 km
>= 3000ft
5 to 8 km
1000 to 3000 ft
1500m to 5 km
500 to 1000 ft
800 to 1500m
200 to 500 ft
< 800m
< 200 ft
Symbols :   Thunderstorms  Fog  Heavy snow  Heavy precipitations  Wind > 20 kt
SIGMETs :     Misc.  Thunderstorms  Icing  Turbulence  Mountain Waves  Volcanic Ashes






- Airport Elevation : 163 ft
- IATA code : IST


LTBA - Ataturk

CURRENT METAR :
  • 281250Z 24007KT 200V260 9999 SCT025TCU BKN060 16/10 Q1016 NOSIG RMK RWY17L 21008KT RWY05 25007KT 220V280 RWY23 24009KT

EXPIRED METARs :
  • 281220Z 23007KT 200V270 9999 SCT032TCU BKN060 16/11 Q1016 NOSIG RMK RWY17L 23010KT RWY05 25008KT RWY23 24010KT
  • 281150Z 21008KT 180V240 9999 FEW008 FEW032TCU BKN050 16/11 Q1016 NOSIG RMK RWY17L 20009KT RWY05 23008KT RWY23 24010KT
  • 281120Z 22008KT 180V250 9999 SCT025 FEW032CB 17/11 Q1016 NOSIG RMK RWY17L 20010KT RWY05 24008KT RWY23 24009KT
  • 281050Z 20008KT 160V240 9999 BKN025 17/12 Q1016 NOSIG
  • 281020Z 22007KT 180V250 9999 BKN023 17/11 Q1016 NOSIG RMK RWY17L 21010KT 170V230 RWY05 24008KT RWY23 24010KT

TAF TAF LTBA
Valid from the 28 at 12:00 until the 29 at 18:00 UTC


281040Z 2812/2918 VRB02KT 9999 FEW023 SCT035
BECMG 2816/2819 CAVOK
TEMPO 2904/2908 21012KT -TSRA FEW025CB SCT035



MET'MAP, your aeronautical weather chart ! - Copyright ORBIFLY December 2007 - Disclaimer

ORBIFLY MET'MAP TEAM :

Programming & Development : Alexandra Zaïnal
Concept & original design : Baudouin d'Aumeries
Assistance for programming : Marc-Olivier Méhu
Technical & hardware support : Manuel Goepfert

Contact : metmap@orbifly.com




SOURCES & CREDITS :

   NOAA